Time;durP1;ratioP1;P1;durP2;ratioP2;P2;SDS_P1;SDS_P2;PMS_P1;PMS_P2;Temp;Humidity;BMP_temperature;BMP_pressure;BME280_temperature;BME280_humidity;BME280_pressure;Samples;Min_cycle;Max_cycle;Signal;HPM_P1;HPM_P2
2023/08/24 00:00:42;;;;;;;3.55;2.08;;;20.80;97.70;;;;;;4992992;28;20030;-82
2023/08/24 00:03:08;;;;;;;3.58;2.40;;;20.80;97.80;;;;;;4976537;28;20018;-82
2023/08/24 00:05:38;;;;;;;3.70;2.30;;;20.80;97.80;;;;;;4976577;28;20026;-82
2023/08/24 00:08:10;;;;;;;3.90;2.72;;;20.80;97.80;;;;;;4992199;28;20058;-82
2023/08/24 00:10:37;;;;;;;3.90;2.55;;;20.80;97.80;;;;;;4991805;28;20114;-82
2023/08/24 00:13:03;;;;;;;4.55;2.42;;;20.80;97.80;;;;;;4991617;28;20358;-82
2023/08/24 00:15:29;;;;;;;3.25;2.10;;;20.80;97.80;;;;;;4977146;28;20023;-82
2023/08/24 00:17:55;;;;;;;4.40;2.25;;;20.80;97.80;;;;;;4991698;28;20019;-82
2023/08/24 00:20:24;;;;;;;3.28;2.60;;;20.80;97.80;;;;;;4990774;28;20038;-82
2023/08/24 00:22:49;;;;;;;3.35;2.22;;;20.70;97.90;;;;;;4975277;28;20101;-82
2023/08/24 00:25:15;;;;;;;2.83;2.17;;;20.80;98.00;;;;;;4995048;28;20479;-82
2023/08/24 00:27:41;;;;;;;5.00;2.85;;;20.70;98.00;;;;;;5009930;28;20030;-82
2023/08/24 00:30:07;;;;;;;3.45;2.60;;;20.70;98.00;;;;;;5000229;28;20035;-82
2023/08/24 00:32:34;;;;;;;3.55;2.78;;;20.70;98.00;;;;;;4999475;28;20090;-81
2023/08/24 00:35:05;;;;;;;2.92;2.20;;;20.70;98.10;;;;;;4991402;28;20077;-82
2023/08/24 00:37:31;;;;;;;6.30;2.97;;;20.70;98.10;;;;;;5005638;28;20061;-82
2023/08/24 00:40:00;;;;;;;3.33;2.40;;;20.60;98.10;;;;;;4996140;28;20026;-82
2023/08/24 00:42:26;;;;;;;4.10;2.70;;;20.60;98.20;;;;;;4975645;28;20482;-82
2023/08/24 00:44:51;;;;;;;4.72;2.60;;;20.60;98.20;;;;;;4975078;28;20146;-82
2023/08/24 00:47:17;;;;;;;4.85;2.40;;;20.60;98.30;;;;;;4991154;28;20082;-82
2023/08/24 00:49:43;;;;;;;3.70;2.60;;;20.60;98.30;;;;;;4991212;28;20030;-82
2023/08/24 00:52:10;;;;;;;4.60;2.58;;;20.60;98.40;;;;;;4990794;28;20023;-82
2023/08/24 00:54:38;;;;;;;4.18;2.67;;;20.60;98.40;;;;;;4974197;28;20041;-82
2023/08/24 00:57:04;;;;;;;4.95;2.72;;;20.60;98.50;;;;;;4974798;28;20022;-82
2023/08/24 00:59:31;;;;;;;5.20;2.72;;;20.60;98.50;;;;;;4990948;28;20079;-82
2023/08/24 01:01:59;;;;;;;6.07;3.10;;;20.60;98.50;;;;;;4990460;28;20483;-81
2023/08/24 01:04:25;;;;;;;4.85;2.72;;;20.50;98.60;;;;;;4974795;28;20070;-82
2023/08/24 01:06:52;;;;;;;4.30;2.60;;;20.50;98.60;;;;;;4974396;28;20037;-81
2023/08/24 01:09:19;;;;;;;4.20;2.73;;;20.50;98.60;;;;;;4938123;28;1120084;-82
2023/08/24 01:11:47;;;;;;;5.13;3.22;;;20.60;98.70;;;;;;4975252;28;20314;-81
2023/08/24 01:14:45;;;;;;;3.53;2.75;;;20.60;98.80;;;;;;4976719;28;20027;-81
2023/08/24 01:17:16;;;;;;;5.75;2.90;;;20.50;98.80;;;;;;4954125;28;20063;-82
2023/08/24 01:19:43;;;;;;;5.72;3.40;;;20.50;98.80;;;;;;4976573;28;20022;-82
2023/08/24 01:22:27;;;;;;;4.90;3.40;;;20.50;98.90;;;;;;4974950;28;20479;-82
2023/08/24 01:25:20;;;;;;;8.98;3.35;;;20.50;98.90;;;;;;4990797;28;20427;-82
2023/08/24 01:27:49;;;;;;;5.43;3.20;;;20.50;99.00;;;;;;4967583;28;20090;-81
2023/08/24 01:30:15;;;;;;;5.72;3.10;;;20.50;99.00;;;;;;4990877;28;20031;-82
2023/08/24 01:32:41;;;;;;;6.40;3.80;;;20.50;99.00;;;;;;4974869;28;20026;-82
2023/08/24 01:35:09;;;;;;;4.85;3.88;;;20.50;99.10;;;;;;4975538;28;20105;-82
2023/08/24 01:37:35;;;;;;;5.43;3.45;;;20.50;99.10;;;;;;4991059;28;20023;-82
2023/08/24 01:40:23;;;;;;;6.00;3.65;;;20.50;99.10;;;;;;4976254;28;20031;-82
2023/08/24 01:42:56;;;;;;;6.55;4.18;;;20.50;99.20;;;;;;4974774;28;20035;-81
2023/08/24 01:45:27;;;;;;;5.65;3.95;;;20.50;99.20;;;;;;4975890;28;20034;-82
2023/08/24 01:47:54;;;;;;;5.45;3.28;;;20.50;99.20;;;;;;4976330;28;20098;-89
2023/08/24 01:50:21;;;;;;;6.95;3.88;;;20.50;99.30;;;;;;4975990;28;20069;-91
2023/08/24 01:52:47;;;;;;;4.95;3.42;;;20.50;99.30;;;;;;4976176;28;20043;-90
2023/08/24 01:55:15;;;;;;;6.10;3.83;;;20.40;99.30;;;;;;4992347;28;20031;-90
2023/08/24 01:57:40;;;;;;;6.32;4.10;;;20.50;99.30;;;;;;4977280;28;20019;-90
2023/08/24 02:00:07;;;;;;;8.88;4.15;;;20.50;99.40;;;;;;4976240;28;20027;-90
2023/08/24 02:02:34;;;;;;;7.18;3.90;;;20.50;99.40;;;;;;4976186;28;20114;-90
2023/08/24 02:05:00;;;;;;;5.95;4.20;;;20.50;99.40;;;;;;4976076;28;20058;-90
2023/08/24 02:07:26;;;;;;;4.90;3.88;;;20.40;99.50;;;;;;4975780;28;20073;-89
2023/08/24 02:09:52;;;;;;;5.38;4.18;;;20.40;99.80;;;;;;4976477;28;20145;-91
2023/08/24 02:12:17;;;;;;;6.18;4.43;;;20.40;99.60;;;;;;4977356;28;20050;-90
2023/08/24 02:14:43;;;;;;;6.70;4.00;;;20.40;99.60;;;;;;4976167;28;20026;-90
2023/08/24 02:17:09;;;;;;;7.90;4.57;;;20.40;99.60;;;;;;4976591;28;20023;-89
2023/08/24 02:19:34;;;;;;;7.93;5.00;;;20.40;99.70;;;;;;4978045;28;20052;-90
2023/08/24 02:22:00;;;;;;;6.40;4.65;;;20.40;99.70;;;;;;4993264;28;20023;-90
2023/08/24 02:24:26;;;;;;;8.30;4.65;;;20.40;99.80;;;;;;4994727;28;20035;-90
2023/08/24 02:26:51;;;;;;;7.28;4.72;;;20.40;99.80;;;;;;4996719;28;20037;-90
2023/08/24 02:29:18;;;;;;;5.90;4.32;;;20.40;99.90;;;;;;4998077;28;20021;-88
2023/08/24 02:31:44;;;;;;;6.00;4.45;;;20.40;99.90;;;;;;4989681;28;20031;-90
2023/08/24 02:34:09;;;;;;;6.07;4.78;;;20.40;99.90;;;;;;4996303;28;20031;-90
2023/08/24 02:36:38;;;;;;;5.55;4.50;;;20.40;99.90;;;;;;4978953;28;20027;-90
2023/08/24 02:39:05;;;;;;;8.05;4.93;;;20.40;99.90;;;;;;4992123;28;20027;-89
2023/08/24 02:41:30;;;;;;;6.57;5.15;;;20.40;99.90;;;;;;4991809;28;20049;-91
2023/08/24 02:43:56;;;;;;;7.07;4.68;;;20.40;99.90;;;;;;4974935;28;20023;-90
2023/08/24 02:46:22;;;;;;;7.70;5.15;;;20.50;99.90;;;;;;4991507;28;20081;-89
2023/08/24 02:48:47;;;;;;;6.55;5.18;;;20.40;99.90;;;;;;4975363;28;20113;-90
2023/08/24 02:51:13;;;;;;;7.50;5.38;;;20.40;99.90;;;;;;4991528;28;20050;-90
2023/08/24 02:53:39;;;;;;;6.50;5.38;;;20.40;99.90;;;;;;4975053;28;20031;-89
2023/08/24 02:56:05;;;;;;;6.93;5.10;;;20.40;99.90;;;;;;4975332;28;20019;-90
2023/08/24 02:58:31;;;;;;;7.68;5.30;;;20.40;99.90;;;;;;4975137;28;20379;-90
2023/08/24 03:01:05;;;;;;;6.30;4.97;;;20.40;99.90;;;;;;4975598;28;20065;-90
2023/08/24 03:03:30;;;;;;;9.45;5.72;;;20.40;99.90;;;;;;4975300;28;20383;-90
2023/08/24 03:05:57;;;;;;;9.07;5.43;;;20.40;99.90;;;;;;4991073;28;20031;-91
2023/08/24 03:08:24;;;;;;;7.97;5.60;;;20.40;99.90;;;;;;4975047;28;20047;-90
2023/08/24 03:10:50;;;;;;;6.25;4.97;;;20.40;99.90;;;;;;4975049;28;20030;-89
2023/08/24 03:13:16;;;;;;;6.13;5.47;;;20.40;99.90;;;;;;4975648;28;20027;-89
2023/08/24 03:15:41;;;;;;;9.32;5.70;;;20.40;99.90;;;;;;4974948;28;20037;-89
2023/08/24 03:18:07;;;;;;;7.07;5.10;;;20.30;99.90;;;;;;4975119;28;20026;-90
2023/08/24 03:20:33;;;;;;;7.35;5.47;;;20.30;99.90;;;;;;4974967;28;20023;-89
2023/08/24 03:22:59;;;;;;;8.00;5.22;;;20.40;99.90;;;;;;4974112;28;20089;-90
2023/08/24 03:25:24;;;;;;;10.02;5.30;;;20.30;99.90;;;;;;4973554;28;20035;-89
2023/08/24 03:27:51;;;;;;;6.65;5.35;;;20.30;99.90;;;;;;4974964;28;20053;-90
2023/08/24 03:30:16;;;;;;;9.30;5.97;;;20.30;99.90;;;;;;4990908;28;20453;-90
2023/08/24 03:32:42;;;;;;;8.30;5.68;;;20.30;99.90;;;;;;4991059;28;20079;-90
2023/08/24 03:35:08;;;;;;;7.70;5.90;;;20.30;99.90;;;;;;4974648;28;20058;-90
2023/08/24 03:37:34;;;;;;;9.43;6.10;;;20.30;99.90;;;;;;4974576;28;20026;-90
2023/08/24 03:39:59;;;;;;;8.32;6.35;;;20.30;99.90;;;;;;4990704;28;20511;-89
2023/08/24 03:42:25;;;;;;;7.07;5.95;;;20.30;99.90;;;;;;4991063;28;20035;-90
2023/08/24 03:44:51;;;;;;;7.93;5.72;;;20.30;99.90;;;;;;4975724;28;20118;-90
2023/08/24 03:47:16;;;;;;;6.18;5.32;;;20.20;99.90;;;;;;4975936;28;20023;-89
2023/08/24 03:49:44;;;;;;;7.32;5.65;;;20.20;99.90;;;;;;4991103;28;20379;-91
2023/08/24 03:52:09;;;;;;;8.55;5.78;;;20.20;99.90;;;;;;4974884;28;20023;-90
2023/08/24 03:54:35;;;;;;;9.73;5.90;;;20.20;99.90;;;;;;4974786;28;20175;-90
2023/08/24 03:57:01;;;;;;;6.55;5.65;;;20.20;99.90;;;;;;4975224;28;20027;-89
2023/08/24 03:59:30;;;;;;;7.63;5.88;;;20.20;99.90;;;;;;4993910;28;20054;-90
2023/08/24 04:01:56;;;;;;;8.63;6.22;;;20.20;99.90;;;;;;4995522;28;20027;-90
2023/08/24 04:04:29;;;;;;;7.97;5.45;;;20.20;99.90;;;;;;4979519;28;20126;-90
2023/08/24 04:06:54;;;;;;;6.82;5.60;;;20.10;99.90;;;;;;4994385;28;20035;-90
2023/08/24 04:09:23;;;;;;;5.72;5.13;;;20.10;99.90;;;;;;4979284;28;20403;-90
2023/08/24 04:11:49;;;;;;;9.60;6.18;;;20.20;99.90;;;;;;4996449;28;20031;-90
2023/08/24 04:14:14;;;;;;;8.50;6.03;;;20.20;99.90;;;;;;4997080;28;20174;-90
2023/08/24 04:16:41;;;;;;;6.93;5.25;;;20.20;99.90;;;;;;4980484;28;20471;-90
2023/08/24 04:19:08;;;;;;;7.55;5.78;;;20.10;99.90;;;;;;4997709;28;20018;-90
2023/08/24 04:21:34;;;;;;;9.52;6.32;;;20.10;99.90;;;;;;4991174;28;20015;-88
2023/08/24 04:23:59;;;;;;;6.88;5.97;;;20.10;99.90;;;;;;5000690;28;20058;-90
2023/08/24 04:26:25;;;;;;;8.88;6.07;;;20.00;99.90;;;;;;4998322;28;20026;-89
2023/08/24 04:28:51;;;;;;;9.80;6.47;;;20.00;99.90;;;;;;4992554;28;20118;-89
2023/08/24 04:31:17;;;;;;;8.60;6.78;;;20.00;99.90;;;;;;4992977;28;20475;-89
2023/08/24 04:33:43;;;;;;;10.88;6.65;;;20.00;99.90;;;;;;5002853;28;20031;-90
2023/08/24 04:36:08;;;;;;;9.68;6.60;;;20.00;99.90;;;;;;5000520;28;20451;-90
2023/08/24 04:38:34;;;;;;;7.45;6.00;;;20.00;99.90;;;;;;4996242;28;20031;-91
2023/08/24 04:41:07;;;;;;;6.88;5.90;;;20.00;99.90;;;;;;4978425;28;20447;-91
2023/08/24 04:43:33;;;;;;;9.27;7.53;;;20.00;99.90;;;;;;4978241;28;20023;-93
2023/08/24 04:45:59;;;;;;;8.68;6.55;;;20.00;99.90;;;;;;4995201;28;20039;-93
2023/08/24 04:48:26;;;;;;;7.65;6.07;;;19.90;99.90;;;;;;4979105;28;20066;-92
2023/08/24 04:50:56;;;;;;;7.80;6.32;;;19.90;99.90;;;;;;4978526;28;20090;-92
2023/08/24 04:53:22;;;;;;;9.37;6.10;;;19.90;99.90;;;;;;4978532;28;20026;-93
2023/08/24 04:55:47;;;;;;;7.55;6.72;;;19.90;99.90;;;;;;4977345;28;20522;-92
2023/08/24 04:58:13;;;;;;;8.27;6.60;;;19.90;99.90;;;;;;4994531;28;20111;-91
2023/08/24 05:00:39;;;;;;;7.38;6.25;;;19.90;99.90;;;;;;4978831;28;20394;-91
2023/08/24 05:03:06;;;;;;;9.07;6.75;;;19.80;99.90;;;;;;4997491;28;20114;-91
2023/08/24 05:05:33;;;;;;;7.35;5.63;;;19.80;99.90;;;;;;4982659;28;20216;-91
2023/08/24 05:07:59;;;;;;;7.10;6.40;;;19.80;99.90;;;;;;4984620;28;20055;-91
2023/08/24 05:10:25;;;;;;;7.43;5.78;;;19.80;99.90;;;;;;4983872;28;20027;-87
2023/08/24 05:12:51;;;;;;;8.43;6.30;;;19.80;99.90;;;;;;4989321;28;20041;-91
2023/08/24 05:15:17;;;;;;;8.13;6.05;;;19.80;99.90;;;;;;4989246;28;20023;-91
2023/08/24 05:17:43;;;;;;;10.30;6.90;;;19.90;99.90;;;;;;4994862;28;20031;-90
2023/08/24 05:20:10;;;;;;;8.65;6.43;;;19.80;99.90;;;;;;4993838;28;20034;-89
2023/08/24 05:22:36;;;;;;;8.40;6.82;;;19.80;99.90;;;;;;4993373;28;20530;-91
2023/08/24 05:25:02;;;;;;;10.35;6.30;;;19.80;99.90;;;;;;4993646;28;20057;-91
2023/08/24 05:27:28;;;;;;;9.10;6.00;;;19.90;99.90;;;;;;5011077;28;20034;-88
2023/08/24 05:29:54;;;;;;;9.60;7.10;;;19.80;99.90;;;;;;5003351;28;20031;-91
2023/08/24 05:32:20;;;;;;;8.20;6.43;;;19.90;99.90;;;;;;4979722;28;20023;-90
2023/08/24 05:34:46;;;;;;;7.95;7.15;;;19.80;99.90;;;;;;4979384;28;20130;-91
2023/08/24 05:37:12;;;;;;;7.53;6.72;;;19.80;99.90;;;;;;4980696;28;20029;-91
2023/08/24 05:39:38;;;;;;;7.93;5.97;;;19.80;99.90;;;;;;4995777;28;20037;-92
2023/08/24 05:42:04;;;;;;;8.88;6.80;;;19.90;99.90;;;;;;4979646;28;20121;-92
2023/08/24 05:44:30;;;;;;;10.40;6.50;;;19.90;99.90;;;;;;4981380;28;20035;-93
2023/08/24 05:46:56;;;;;;;7.18;5.93;;;19.90;99.90;;;;;;4982599;28;20038;-91
2023/08/24 05:49:21;;;;;;;7.32;6.43;;;20.00;99.90;;;;;;4984263;28;20509;-93
2023/08/24 05:51:53;;;;;;;8.00;6.60;;;20.00;99.90;;;;;;4986067;28;20110;-91
2023/08/24 05:54:19;;;;;;;7.97;6.63;;;20.00;99.90;;;;;;4988799;28;20034;-91
2023/08/24 05:56:45;;;;;;;8.80;7.22;;;19.90;99.90;;;;;;4997075;28;20038;-93
2023/08/24 05:59:11;;;;;;;9.18;6.80;;;19.90;99.90;;;;;;4997159;28;20023;-93
2023/08/24 06:01:41;;;;;;;6.78;6.07;;;20.00;99.90;;;;;;4996308;28;20042;-91
2023/08/24 06:04:07;;;;;;;10.43;6.45;;;20.00;99.90;;;;;;4996511;28;20479;-93
2023/08/24 06:06:33;;;;;;;8.65;6.57;;;20.00;99.90;;;;;;4996018;28;20097;-91
2023/08/24 06:08:58;;;;;;;8.30;7.07;;;20.00;99.90;;;;;;4995993;28;20086;-91
2023/08/24 06:11:24;;;;;;;8.55;7.00;;;20.10;99.90;;;;;;4995989;28;20031;-92
2023/08/24 06:13:54;;;;;;;9.77;7.07;;;20.10;99.90;;;;;;4980612;28;20078;-92
2023/08/24 06:16:23;;;;;;;7.55;6.00;;;20.10;99.90;;;;;;4980292;28;20110;-93
2023/08/24 06:18:49;;;;;;;8.20;6.60;;;20.10;99.90;;;;;;4998240;28;20007;-91
2023/08/24 06:21:16;;;;;;;9.18;7.47;;;20.10;99.90;;;;;;4998526;28;20086;-93
2023/08/24 06:23:41;;;;;;;7.25;6.55;;;20.10;99.90;;;;;;4991718;28;20027;-93
2023/08/24 06:26:07;;;;;;;8.70;6.95;;;20.10;99.90;;;;;;5001820;28;20066;-91
2023/08/24 06:28:36;;;;;;;8.48;6.80;;;20.10;99.90;;;;;;4980058;28;20030;-89
2023/08/24 06:31:02;;;;;;;7.75;6.93;;;20.10;99.90;;;;;;4977266;28;20035;-93
2023/08/24 06:33:30;;;;;;;7.35;6.55;;;20.10;99.90;;;;;;4976661;28;20128;-92
2023/08/24 06:35:57;;;;;;;9.65;7.47;;;20.20;99.90;;;;;;4975314;28;20387;-94
2023/08/24 06:38:23;;;;;;;8.32;6.90;;;20.20;99.90;;;;;;4975806;28;20121;-92
2023/08/24 06:40:48;;;;;;;9.93;7.68;;;20.20;99.90;;;;;;4976502;28;20042;-94
2023/08/24 06:43:14;;;;;;;9.50;7.22;;;20.20;99.90;;;;;;4992015;28;20065;-94
2023/08/24 06:45:41;;;;;;;7.13;6.25;;;20.20;99.90;;;;;;4976305;28;20039;-93
2023/08/24 06:48:07;;;;;;;7.65;6.30;;;20.20;99.90;;;;;;4975112;28;20081;-92
2023/08/24 06:50:33;;;;;;;11.45;7.53;;;20.30;99.90;;;;;;4975360;28;20030;-93
2023/08/24 06:52:59;;;;;;;9.98;6.93;;;20.30;99.90;;;;;;4975677;28;20041;-93
2023/08/24 06:55:27;;;;;;;9.32;7.47;;;20.40;99.90;;;;;;4975707;28;20038;-93
2023/08/24 06:57:52;;;;;;;8.63;6.97;;;20.50;99.90;;;;;;4975381;28;20030;-92
2023/08/24 07:00:19;;;;;;;10.25;7.30;;;20.50;99.90;;;;;;4975232;28;20503;-92
2023/08/24 07:02:47;;;;;;;9.27;7.40;;;20.60;99.90;;;;;;4990910;28;20077;-94
2023/08/24 07:05:13;;;;;;;10.18;7.75;;;20.60;99.90;;;;;;4975282;28;20541;-92
2023/08/24 07:07:38;;;;;;;8.50;7.10;;;20.70;99.90;;;;;;4974866;28;20129;-87
2023/08/24 07:10:06;;;;;;;9.15;6.85;;;20.70;99.90;;;;;;4975572;28;20026;-93
2023/08/24 07:12:32;;;;;;;13.85;8.98;;;20.80;99.90;;;;;;4975303;28;20082;-93
2023/08/24 07:14:57;;;;;;;12.07;7.93;;;20.80;99.90;;;;;;4991535;28;20085;-92
2023/08/24 07:17:24;;;;;;;7.50;6.50;;;20.80;99.90;;;;;;4976527;28;20031;-92
2023/08/24 07:19:52;;;;;;;7.68;6.85;;;20.80;99.90;;;;;;4975500;28;20043;-92
2023/08/24 07:22:19;;;;;;;8.55;6.80;;;20.90;99.90;;;;;;4975907;28;20018;-93
2023/08/24 07:24:44;;;;;;;7.95;6.90;;;21.00;99.90;;;;;;4991292;28;20420;-93
2023/08/24 07:27:10;;;;;;;9.75;7.80;;;21.00;99.90;;;;;;4974590;28;20022;-90
2023/08/24 07:29:36;;;;;;;7.80;6.88;;;21.10;99.90;;;;;;4976163;28;20027;-93
2023/08/24 07:32:03;;;;;;;9.30;7.88;;;21.10;99.90;;;;;;4990691;28;20039;-93
2023/08/24 07:34:29;;;;;;;8.00;6.45;;;21.20;99.90;;;;;;4993309;28;20105;-93
2023/08/24 07:36:55;;;;;;;8.65;6.63;;;21.20;99.90;;;;;;4978649;28;20364;-92
2023/08/24 07:39:21;;;;;;;9.85;6.53;;;21.30;99.90;;;;;;4978508;28;20134;-92
2023/08/24 07:41:46;;;;;;;7.25;6.47;;;21.40;99.90;;;;;;4994617;28;20034;-93
2023/08/24 07:44:12;;;;;;;10.70;6.38;;;21.40;99.90;;;;;;4995044;28;20390;-93
2023/08/24 07:46:39;;;;;;;8.70;6.45;;;21.50;99.90;;;;;;4979663;28;20109;-92
2023/08/24 07:49:05;;;;;;;10.27;7.18;;;21.50;99.90;;;;;;4978652;28;20038;-92
2023/08/24 07:51:33;;;;;;;9.68;6.72;;;21.60;99.90;;;;;;4980138;28;20382;-94
2023/08/24 07:54:00;;;;;;;8.88;6.88;;;21.70;99.90;;;;;;4978272;28;20430;-93
2023/08/24 07:56:25;;;;;;;9.90;5.78;;;21.70;99.90;;;;;;4979613;28;20382;-93
2023/08/24 07:58:51;;;;;;;7.28;5.88;;;21.90;99.90;;;;;;4978273;28;20023;-94
2023/08/24 08:01:17;;;;;;;10.18;6.32;;;21.90;99.90;;;;;;4994660;28;20081;-93
2023/08/24 08:03:42;;;;;;;8.25;5.63;;;22.00;99.90;;;;;;4978806;28;20033;-93
2023/08/24 08:06:08;;;;;;;8.45;5.80;;;22.10;99.90;;;;;;4978142;28;20538;-93
2023/08/24 08:08:34;;;;;;;9.23;6.72;;;22.10;99.90;;;;;;4978279;28;20046;-93
2023/08/24 08:11:01;;;;;;;9.65;7.47;;;22.20;99.90;;;;;;4978936;28;20089;-93
2023/08/24 08:13:30;;;;;;;8.07;6.38;;;22.20;99.90;;;;;;4990089;28;20034;-93
2023/08/24 08:16:07;;;;;;;9.23;6.60;;;22.30;99.90;;;;;;4999460;28;20018;-91
2023/08/24 08:18:33;;;;;;;6.20;5.45;;;22.40;99.90;;;;;;4999891;28;20062;-93
2023/08/24 08:20:59;;;;;;;8.45;6.10;;;22.40;99.90;;;;;;4990508;28;20018;-92
2023/08/24 08:23:25;;;;;;;9.15;6.18;;;22.50;99.90;;;;;;5000943;28;20042;-94
2023/08/24 08:25:51;;;;;;;7.07;5.65;;;22.50;99.90;;;;;;4997812;28;20061;-93
2023/08/24 08:28:18;;;;;;;8.18;5.70;;;22.70;99.90;;;;;;4978048;28;20050;-94
2023/08/24 08:30:44;;;;;;;6.97;5.78;;;22.70;99.90;;;;;;4978082;28;20438;-94
2023/08/24 08:33:10;;;;;;;13.02;7.20;;;22.80;99.90;;;;;;4993827;28;20031;-94
2023/08/24 08:35:38;;;;;;;7.53;6.13;;;22.90;99.90;;;;;;4978132;28;20027;-94
2023/08/24 08:38:06;;;;;;;9.25;6.53;;;23.00;99.90;;;;;;4977388;28;20123;-93
2023/08/24 08:40:32;;;;;;;8.38;6.60;;;23.10;99.90;;;;;;4977551;28;20081;-93
2023/08/24 08:42:58;;;;;;;9.50;6.25;;;23.10;99.90;;;;;;4977246;28;20383;-93
2023/08/24 08:45:27;;;;;;;9.88;7.13;;;23.20;99.90;;;;;;4977044;28;20047;-93
2023/08/24 08:47:57;;;;;;;10.45;7.13;;;23.30;99.90;;;;;;4977547;28;20118;-94
2023/08/24 08:50:24;;;;;;;8.05;6.20;;;23.30;99.90;;;;;;4978260;28;20109;-94
2023/08/24 08:52:49;;;;;;;9.35;6.15;;;23.40;99.90;;;;;;4977187;28;20042;-95
2023/08/24 08:55:15;;;;;;;8.45;6.25;;;23.50;99.90;;;;;;4977041;28;20027;-94
2023/08/24 08:57:42;;;;;;;7.68;6.38;;;23.50;99.90;;;;;;4977014;28;20426;-94
2023/08/24 09:00:13;;;;;;;9.40;7.20;;;23.60;99.90;;;;;;4993548;28;20042;-94
2023/08/24 09:02:40;;;;;;;10.63;6.93;;;23.70;99.90;;;;;;4977387;28;20046;-93
2023/08/24 09:05:06;;;;;;;7.28;6.05;;;23.70;99.80;;;;;;4977302;28;20038;-94
2023/08/24 09:07:34;;;;;;;7.47;5.82;;;23.80;99.70;;;;;;4977011;28;20038;-94
2023/08/24 09:10:00;;;;;;;13.63;7.63;;;23.80;99.70;;;;;;4976942;28;20046;-93
2023/08/24 09:12:26;;;;;;;7.20;5.63;;;23.90;99.60;;;;;;4994199;28;20130;-93
2023/08/24 09:14:51;;;;;;;7.82;6.53;;;23.90;99.50;;;;;;4977399;28;20039;-93
2023/08/24 09:17:21;;;;;;;11.65;7.85;;;24.00;99.50;;;;;;4976946;28;20022;-93
2023/08/24 09:19:50;;;;;;;7.30;5.82;;;24.10;99.30;;;;;;4977868;28;20034;-93
2023/08/24 09:22:15;;;;;;;9.75;5.88;;;24.10;99.30;;;;;;4977836;28;20046;-93
2023/08/24 09:24:41;;;;;;;9.02;6.30;;;24.20;99.30;;;;;;4976682;28;20502;-93
2023/08/24 09:27:34;;;;;;;8.82;6.82;;;24.20;99.30;;;;;;4976318;28;20030;-92
2023/08/24 09:29:59;;;;;;;7.53;5.53;;;24.20;99.10;;;;;;4974227;28;20031;-93
2023/08/24 09:32:30;;;;;;;8.23;6.15;;;24.30;99.20;;;;;;4977191;28;20103;-93
2023/08/24 09:34:56;;;;;;;;;;;24.40;99.20;;;;;;4976579;28;20122;-93
2023/08/24 09:37:21;;;;;;;8.82;6.32;;;24.40;99.00;;;;;;4976239;28;19949;-93
2023/08/24 09:39:48;;;;;;;10.27;5.90;;;24.40;99.00;;;;;;4977170;28;20035;-93
2023/08/24 09:42:14;;;;;;;8.68;5.82;;;24.40;99.00;;;;;;4976175;28;20122;-93
2023/08/24 09:44:46;;;;;;;7.82;5.45;;;24.50;99.00;;;;;;4992318;28;20471;-92
2023/08/24 09:47:12;;;;;;;10.73;6.32;;;24.50;99.00;;;;;;4976582;28;20483;-93
2023/08/24 09:49:38;;;;;;;9.65;7.22;;;24.50;98.80;;;;;;4977237;28;20070;-92
2023/08/24 09:52:07;;;;;;;8.30;6.50;;;24.60;98.70;;;;;;4976927;28;20035;-93
2023/08/24 09:54:37;;;;;;;9.75;7.28;;;24.60;98.60;;;;;;4976321;28;20090;-93
2023/08/24 09:57:06;;;;;;;7.07;5.15;;;24.70;98.50;;;;;;4975228;28;20038;-93
2023/08/24 09:59:33;;;;;;;8.13;5.77;;;24.70;98.50;;;;;;4976154;28;20030;-93
2023/08/24 10:02:01;;;;;;;7.30;6.03;;;24.80;98.40;;;;;;4976144;28;20098;-93
2023/08/24 10:04:35;;;;;;;7.93;5.60;;;24.90;98.30;;;;;;4992416;28;20419;-94
2023/08/24 10:07:11;;;;;;;6.25;4.82;;;24.90;98.30;;;;;;4977632;28;20027;-89
2023/08/24 10:09:47;;;;;;;6.70;4.90;;;24.90;98.30;;;;;;4976826;28;20462;-92
2023/08/24 10:12:14;;;;;;;6.43;4.60;;;25.00;98.20;;;;;;4978540;28;20037;-94
2023/08/24 10:15:03;;;;;;;6.25;4.60;;;25.00;98.20;;;;;;4978680;28;20026;-93
2023/08/24 10:17:31;;;;;;;9.60;5.10;;;25.10;98.20;;;;;;4977933;28;20030;-94
2023/08/24 10:20:05;;;;;;;5.30;3.78;;;25.10;98.10;;;;;;5012619;28;20054;-94
2023/08/24 10:22:33;;;;;;;7.32;4.78;;;25.10;98.20;;;;;;5014229;28;20023;-94
2023/08/24 10:24:59;;;;;;;5.13;3.78;;;25.10;98.20;;;;;;5007929;28;20065;-94
2023/08/24 10:27:27;;;;;;;7.47;3.88;;;25.20;98.20;;;;;;4996712;28;20034;-93
2023/08/24 10:29:53;;;;;;;7.18;4.25;;;25.20;98.20;;;;;;4978964;28;20049;-94
2023/08/24 10:32:26;;;;;;;5.82;4.22;;;25.20;98.20;;;;;;4992091;28;20031;-93
2023/08/24 10:34:52;;;;;;;6.30;4.00;;;25.20;98.10;;;;;;4975841;28;20040;-92
2023/08/24 10:37:25;;;;;;;6.18;4.13;;;25.20;98.00;;;;;;4991635;28;20118;-93
2023/08/24 10:39:51;;;;;;;7.93;4.47;;;25.20;98.00;;;;;;4975509;28;20023;-93
2023/08/24 10:42:17;;;;;;;7.35;4.00;;;25.20;98.00;;;;;;4991562;28;20043;-93
2023/08/24 10:44:47;;;;;;;5.63;3.97;;;25.20;98.00;;;;;;4975087;28;20422;-93
2023/08/24 10:47:22;;;;;;;6.50;4.32;;;25.20;98.30;;;;;;4975200;28;20513;-93
2023/08/24 10:50:00;;;;;;;8.38;4.53;;;25.20;98.00;;;;;;4976319;28;20030;-93
2023/08/24 10:52:27;;;;;;;6.93;3.90;;;25.20;98.00;;;;;;4975830;28;20494;-93
2023/08/24 10:54:53;;;;;;;8.57;4.05;;;25.10;98.00;;;;;;4991425;28;20035;-94
2023/08/24 10:57:27;;;;;;;8.00;4.63;;;25.10;98.10;;;;;;4975990;28;20054;-92
2023/08/24 11:00:09;;;;;;;5.97;4.57;;;25.10;98.20;;;;;;4976179;28;20034;-92
2023/08/24 11:02:46;;;;;;;9.10;5.10;;;25.00;98.20;;;;;;4974940;28;20023;-92
2023/08/24 11:05:16;;;;;;;6.65;4.85;;;25.00;98.20;;;;;;4974909;28;20195;-94
2023/08/24 11:07:57;;;;;;;9.20;4.93;;;25.00;98.30;;;;;;4977700;28;20471;-95
2023/08/24 11:10:43;;;;;;;6.90;4.60;;;25.00;98.30;;;;;;4995766;28;20077;-95
2023/08/24 11:13:13;;;;;;;8.07;5.00;;;24.90;98.40;;;;;;4973558;28;20062;-94
2023/08/24 11:15:41;;;;;;;6.53;4.43;;;24.90;98.40;;;;;;4980395;28;20027;-94
2023/08/24 11:18:19;;;;;;;8.52;4.93;;;24.90;98.40;;;;;;4979258;28;20478;-94
2023/08/24 11:20:50;;;;;;;5.93;4.20;;;24.90;98.30;;;;;;4980135;28;20482;-93
2023/08/24 11:23:17;;;;;;;7.25;4.68;;;24.90;98.30;;;;;;4979339;28;20042;-94
2023/08/24 11:25:43;;;;;;;8.00;4.93;;;24.90;98.30;;;;;;4979077;28;20034;-94
2023/08/24 11:28:09;;;;;;;8.68;4.78;;;24.90;98.40;;;;;;4995718;28;20430;-94
2023/08/24 11:30:35;;;;;;;6.95;4.30;;;24.90;98.40;;;;;;4979799;28;20121;-94
2023/08/24 11:33:02;;;;;;;8.18;4.55;;;24.90;98.40;;;;;;4980255;28;20114;-93
2023/08/24 11:35:28;;;;;;;6.97;4.40;;;24.80;98.40;;;;;;4980598;28;20083;-95
2023/08/24 11:37:55;;;;;;;7.93;4.45;;;24.90;98.40;;;;;;4980583;28;20038;-93
2023/08/24 11:40:26;;;;;;;6.05;4.65;;;24.90;98.40;;;;;;4980849;28;20026;-94
2023/08/24 11:42:58;;;;;;;8.02;4.65;;;24.90;98.40;;;;;;4979971;28;20023;-93
2023/08/24 11:45:30;;;;;;;5.65;4.10;;;24.90;98.50;;;;;;4978807;28;20023;-94
2023/08/24 11:47:57;;;;;;;6.35;5.22;;;24.90;98.50;;;;;;4980599;28;20031;-95
2023/08/24 11:50:23;;;;;;;6.68;4.22;;;25.00;98.50;;;;;;4980758;28;20026;-92
2023/08/24 11:52:49;;;;;;;6.15;4.43;;;25.00;98.50;;;;;;4983960;28;20042;-93
2023/08/24 11:55:17;;;;;;;7.00;5.00;;;25.00;98.40;;;;;;4982983;28;20091;-93
2023/08/24 11:57:43;;;;;;;7.97;5.07;;;25.10;98.40;;;;;;4983036;28;20030;-94
2023/08/24 12:00:13;;;;;;;5.13;4.32;;;25.10;98.40;;;;;;4980045;28;20019;-91
2023/08/24 12:02:42;;;;;;;7.93;5.38;;;25.10;98.40;;;;;;4978342;28;20479;-94
2023/08/24 12:05:23;;;;;;;7.65;5.00;;;25.10;98.40;;;;;;4995326;28;20035;-90
2023/08/24 12:07:50;;;;;;;6.18;5.22;;;25.10;98.30;;;;;;4978639;28;20026;-94
2023/08/24 12:10:17;;;;;;;6.18;5.03;;;25.20;98.30;;;;;;4979914;28;20077;-93
2023/08/24 12:12:42;;;;;;;6.50;5.32;;;25.20;98.30;;;;;;4994936;28;20035;-94
2023/08/24 12:15:20;;;;;;;6.53;4.70;;;25.30;98.40;;;;;;4978310;28;20049;-94
2023/08/24 12:17:49;;;;;;;8.60;4.90;;;25.30;98.40;;;;;;4978137;28;20066;-93
2023/08/24 12:20:22;;;;;;;5.85;4.70;;;25.30;98.40;;;;;;4994635;28;20490;-94
2023/08/24 12:22:55;;;;;;;8.55;4.90;;;25.30;98.40;;;;;;4979294;28;20026;-93
2023/08/24 12:25:25;;;;;;;7.03;4.95;;;25.40;98.50;;;;;;5010977;28;20039;-91
2023/08/24 12:28:14;;;;;;;7.03;4.63;;;25.40;98.40;;;;;;5001021;28;20022;-93
2023/08/24 12:30:53;;;;;;;7.50;5.00;;;25.50;98.40;;;;;;4997701;28;20270;-94
2023/08/24 12:33:29;;;;;;;7.82;4.20;;;25.50;98.40;;;;;;4985390;28;20022;-94
2023/08/24 12:35:56;;;;;;;8.15;5.20;;;25.50;98.40;;;;;;4982001;28;20125;-94
2023/08/24 12:38:23;;;;;;;7.45;4.75;;;25.50;98.50;;;;;;4978450;28;20601;-91
2023/08/24 12:40:49;;;;;;;5.80;3.72;;;25.50;98.50;;;;;;4978877;28;20109;-93
2023/08/24 12:43:15;;;;;;;6.65;4.40;;;25.60;98.50;;;;;;4977901;28;20062;-95
2023/08/24 12:45:41;;;;;;;7.95;4.80;;;25.50;98.60;;;;;;4978498;28;20035;-92
2023/08/24 12:48:07;;;;;;;6.90;4.30;;;25.50;98.60;;;;;;4978384;28;20490;-94